Time;durP1;ratioP1;P1;durP2;ratioP2;P2;SDS_P1;SDS_P2;PMS_P1;PMS_P2;Temp;Humidity;BMP_temperature;BMP_pressure;BME280_temperature;BME280_humidity;BME280_pressure;Samples;Min_cycle;Max_cycle;Signal;HPM_P1;HPM_P2
2022/03/20 00:02:25;;;;;;;39.00;26.87;;;;;;;1.92;58.26;102716.73;2828519;84;20992;-74
2022/03/20 00:06:26;;;;;;;49.42;30.92;;;;;;;1.79;59.01;102714.63;2828535;84;20972;-73
2022/03/20 00:10:28;;;;;;;46.30;30.60;;;;;;;1.67;59.28;102715.58;2828568;84;21004;-74
2022/03/20 00:14:30;;;;;;;50.58;31.07;;;;;;;1.59;58.71;102706.43;2828581;84;20984;-73
2022/03/20 00:18:31;;;;;;;66.87;30.85;;;;;;;1.60;58.76;102705.55;2828539;84;21535;-72
2022/03/20 00:22:36;;;;;;;46.60;29.20;;;;;;;1.60;58.61;102695.52;2828549;84;21000;-73
2022/03/20 00:26:39;;;;;;;54.85;30.40;;;;;;;1.65;58.68;102698.97;2828516;84;21052;-74
2022/03/20 00:30:42;;;;;;;53.05;31.33;;;;;;;1.73;58.69;102702.87;2828598;84;20960;-74
2022/03/20 00:34:43;;;;;;;52.70;33.25;;;;;;;1.77;58.47;102709.41;2828328;84;21051;-73
2022/03/20 00:38:45;;;;;;;79.70;37.50;;;;;;;1.83;58.17;102715.03;2830951;84;21063;-73
2022/03/20 00:42:47;;;;;;;50.67;30.92;;;;;;;1.89;58.00;102715.45;2908871;81;21015;-71
2022/03/20 00:46:48;;;;;;;75.80;32.93;;;;;;;1.89;57.93;102708.88;2908961;81;20963;-74
2022/03/20 00:50:50;;;;;;;53.35;29.60;;;;;;;1.92;57.72;102707.55;2908814;81;21003;-75
2022/03/20 00:54:52;;;;;;;49.53;31.62;;;;;;;1.95;57.82;102701.84;2908678;81;21011;-75
2022/03/20 00:58:54;;;;;;;52.20;29.10;;;;;;;1.99;57.82;102704.02;2908841;81;20979;-74
2022/03/20 01:02:56;;;;;;;66.95;35.33;;;;;;;2.05;57.78;102697.41;2908825;81;21053;-73
2022/03/20 01:07:00;;;;;;;46.83;26.85;;;;;;;1.99;57.89;102704.87;2908893;81;20994;-73
2022/03/20 01:11:03;;;;;;;45.63;31.05;;;;;;;1.77;58.51;102713.77;2908907;81;21015;-74
2022/03/20 01:15:10;;;;;;;46.02;31.05;;;;;;;1.70;57.99;102706.37;2908681;81;21038;-73
2022/03/20 01:19:11;;;;;;;51.35;29.60;;;;;;;1.69;58.06;102700.69;2908894;81;20967;-74
2022/03/20 01:23:14;;;;;;;41.80;28.87;;;;;;;1.58;58.41;102701.20;2908927;81;21058;-73
2022/03/20 01:27:16;;;;;;;46.85;29.00;;;;;;;1.50;58.39;102699.48;2908691;81;20982;-75
2022/03/20 01:31:18;;;;;;;48.00;29.48;;;;;;;1.56;58.09;102703.37;2908857;81;20994;-72
2022/03/20 01:35:20;;;;;;;49.65;31.48;;;;;;;1.60;59.11;102698.98;2908709;81;21432;-75
2022/03/20 01:39:21;;;;;;;48.85;28.98;;;;;;;1.58;58.70;102702.52;2903362;81;21016;-75
2022/03/20 01:43:23;;;;;;;46.83;28.32;;;;;;;1.63;58.26;102696.34;2895587;82;20999;-73
2022/03/20 01:47:25;;;;;;;55.40;34.13;;;;;;;1.69;58.22;102698.06;2895376;82;21015;-72
2022/03/20 01:55:42;;;;;;;48.63;26.62;;;;;;;1.71;57.75;102693.25;2896085;82;20968;-74
2022/03/20 01:59:44;;;;;;;49.08;28.77;;;;;;;1.65;58.11;102685.85;2896275;82;20987;-73
2022/03/20 02:03:48;;;;;;;53.17;32.63;;;;;;;1.65;57.97;102685.85;2895710;82;21054;-74
2022/03/20 02:07:49;;;;;;;51.37;30.43;;;;;;;1.72;57.52;102677.05;2895381;82;20987;-71
2022/03/20 02:11:52;;;;;;;47.48;29.55;;;;;;;1.86;57.21;102674.33;2895536;82;21011;-73
2022/03/20 02:15:54;;;;;;;50.08;27.37;;;;;;;1.96;56.76;102676.45;2895391;82;21006;-73
2022/03/20 02:20:03;;;;;;;46.53;29.12;;;;;;;2.00;56.74;102667.23;2895542;82;20992;-74
2022/03/20 02:24:36;;;;;;;51.25;25.02;;;;;;;2.04;56.55;102668.09;2895390;82;20987;-71
2022/03/20 02:28:37;;;;;;;39.20;25.95;;;;;;;2.00;56.50;102659.81;2895178;82;20967;-71
2022/03/20 02:32:43;;;;;;;48.30;29.48;;;;;;;1.96;56.74;102664.63;2895295;82;20988;-71
2022/03/20 02:36:45;;;;;;;53.05;28.42;;;;;;;1.89;56.91;102666.46;2891246;81;20959;-74
2022/03/20 02:40:54;;;;;;;41.40;29.80;;;;;;;1.79;57.38;102671.33;2828710;83;21604;-73
2022/03/20 02:45:12;;;;;;;41.75;29.15;;;;;;;1.67;57.63;102674.91;2836886;82;21539;-72
2022/03/20 02:49:14;;;;;;;47.73;31.55;;;;;;;1.71;57.50;102677.51;2833243;83;21615;-74
2022/03/20 02:53:16;;;;;;;47.03;35.05;;;;;;;1.67;57.84;102681.47;2829012;84;21007;-74
2022/03/20 02:57:18;;;;;;;43.42;28.87;;;;;;;1.62;58.05;102682.80;2828940;84;21023;-72
2022/03/20 03:01:19;;;;;;;56.08;32.53;;;;;;;1.43;59.68;102696.01;2829047;84;21039;-70
2022/03/20 03:05:24;;;;;;;53.45;34.30;;;;;;;1.21;60.31;102690.00;2828903;84;21027;-72
2022/03/20 03:13:42;;;;;;;40.60;27.20;;;;;;;1.18;59.68;102682.16;2828954;84;21007;-73
2022/03/20 03:17:43;;;;;;;44.67;31.60;;;;;;;1.21;59.48;102674.27;2828892;84;21019;-73
2022/03/20 03:21:45;;;;;;;53.02;32.78;;;;;;;1.17;58.98;102669.03;2828866;84;21523;-73
2022/03/20 03:25:47;;;;;;;62.00;32.38;;;;;;;1.20;59.31;102679.08;2828871;84;21011;-74
2022/03/20 03:29:49;;;;;;;49.58;31.90;;;;;;;1.17;59.57;102675.14;2828852;84;21055;-73
2022/03/20 03:38:08;;;;;;;46.02;29.18;;;;;;;1.28;58.97;102681.22;2828835;84;21011;-73
2022/03/20 03:42:09;;;;;;;47.40;29.10;;;;;;;1.34;58.87;102693.87;2836815;84;21023;-74
2022/03/20 03:46:11;;;;;;;45.83;30.30;;;;;;;1.35;58.77;102695.61;2837581;84;21027;-73
2022/03/20 03:50:12;;;;;;;41.98;29.55;;;;;;;1.36;58.76;102692.99;2837679;84;21007;-72
2022/03/20 03:54:14;;;;;;;42.58;29.20;;;;;;;1.29;59.02;102693.91;2837671;84;21011;-73
2022/03/20 03:58:15;;;;;;;43.58;29.70;;;;;;;1.22;59.33;102695.67;2837552;84;21023;-71
2022/03/20 04:02:17;;;;;;;40.25;25.55;;;;;;;1.13;59.54;102693.96;2837759;84;21031;-73
2022/03/20 04:06:19;;;;;;;48.13;28.80;;;;;;;1.03;59.96;102696.16;2837525;84;21062;-71
2022/03/20 04:10:22;;;;;;;50.35;30.37;;;;;;;0.81;60.34;102701.92;2837663;84;20979;-73
2022/03/20 04:14:24;;;;;;;41.48;27.35;;;;;;;0.58;61.04;102697.56;2837684;84;21071;-73
2022/03/20 04:18:26;;;;;;;48.65;31.48;;;;;;;0.42;61.90;102698.91;2837572;84;21031;-73
2022/03/20 04:22:30;;;;;;;43.42;26.00;;;;;;;0.38;61.68;102701.06;2837574;84;21453;-73
2022/03/20 04:26:33;;;;;;;50.90;30.30;;;;;;;0.33;62.48;102705.89;2837743;84;21015;-73
2022/03/20 04:30:35;;;;;;;54.00;32.08;;;;;;;0.18;63.32;102701.08;2837573;84;21063;-73
2022/03/20 04:34:37;;;;;;;48.75;27.10;;;;;;;0.19;62.86;102694.97;2837616;84;21007;-71
2022/03/20 04:38:38;;;;;;;47.00;28.52;;;;;;;0.28;62.65;102694.11;2837450;84;21019;-70
2022/03/20 04:42:40;;;;;;;41.28;28.87;;;;;;;0.21;62.79;102704.16;2837524;84;21051;-73
2022/03/20 04:46:42;;;;;;;40.17;25.82;;;;;;;0.05;63.32;102698.90;2837489;84;21547;-73
2022/03/20 04:59:14;;;;;;;46.20;28.38;;;;;;;-0.05;63.74;102698.43;2837373;84;21764;-74
2022/03/20 05:03:16;;;;;;;34.65;28.02;;;;;;;-0.20;64.44;102700.14;2837585;84;20965;-73
2022/03/20 05:07:17;;;;;;;45.17;27.73;;;;;;;-0.33;65.40;102708.85;2837550;84;21006;-71
2022/03/20 05:15:36;;;;;;;37.17;25.75;;;;;;;-0.39;65.66;102717.97;2837451;84;21019;-70
2022/03/20 05:19:40;;;;;;;42.25;27.93;;;;;;;-0.30;65.80;102724.55;2837378;84;20976;-71
2022/03/20 05:23:42;;;;;;;51.90;29.55;;;;;;;0.06;65.27;102721.58;2837470;84;21011;-73
2022/03/20 05:27:44;;;;;;;44.58;30.00;;;;;;;0.54;64.70;102725.52;2837630;84;21543;-69
2022/03/20 05:31:46;;;;;;;55.08;33.70;;;;;;;0.96;64.23;102728.06;2837825;84;21019;-73
2022/03/20 05:35:48;;;;;;;48.05;30.65;;;;;;;1.33;64.26;102731.03;2837723;84;20988;-72
2022/03/20 05:39:50;;;;;;;46.77;32.17;;;;;;;1.75;63.09;102732.14;2837761;84;21587;-73
2022/03/20 05:43:52;;;;;;;34.85;24.82;;;;;;;1.92;61.60;102737.73;2837994;84;21872;-72
2022/03/20 05:47:54;;;;;;;43.70;26.07;;;;;;;1.70;60.98;102743.99;2838132;84;21614;-70
2022/03/20 05:51:55;;;;;;;43.45;28.67;;;;;;;1.59;61.52;102754.11;2838117;84;20992;-73
2022/03/20 06:00:21;;;;;;;48.35;29.85;;;;;;;1.81;61.46;102750.50;2838117;84;21016;-73
2022/03/20 06:04:17;;;;;;;43.17;25.70;;;;;;;1.96;61.07;102756.52;2836101;84;20956;-73
2022/03/20 06:08:21;;;;;;;49.90;29.30;;;;;;;1.97;61.34;102762.23;2838179;84;21523;-72
2022/03/20 06:12:21;;;;;;;43.10;27.27;;;;;;;1.99;61.43;102767.88;2838102;84;20940;-72
2022/03/20 06:16:23;;;;;;;44.53;27.22;;;;;;;2.23;61.52;102773.85;2838182;84;21004;-71
2022/03/20 06:20:25;;;;;;;48.40;28.57;;;;;;;2.46;59.81;102776.78;2838408;84;21003;-72
2022/03/20 06:24:27;;;;;;;53.90;30.80;;;;;;;2.77;58.64;102777.81;2838509;84;21031;-71
2022/03/20 06:28:29;;;;;;;48.08;30.57;;;;;;;2.98;58.14;102782.45;2838575;84;21007;-71
2022/03/20 06:32:30;;;;;;;44.75;31.70;;;;;;;3.24;57.59;102777.34;2838800;84;21038;-72
2022/03/20 06:36:32;;;;;;;52.00;30.12;;;;;;;3.35;57.74;102777.26;2838986;84;21020;-73
2022/03/20 06:40:33;;;;;;;43.20;24.55;;;;;;;3.12;58.01;102780.98;2838225;84;21540;-73
2022/03/20 06:44:35;;;;;;;49.98;30.55;;;;;;;2.91;58.24;102775.05;2838162;84;21060;-72
2022/03/20 06:48:37;;;;;;;46.37;30.75;;;;;;;2.94;57.86;102780.28;2837716;84;21024;-70
2022/03/20 06:52:39;;;;;;;48.40;31.30;;;;;;;2.93;57.33;102786.42;2837998;84;21551;-73
2022/03/20 06:56:40;;;;;;;44.73;30.10;;;;;;;3.18;56.87;102787.52;2838140;84;21007;-72
2022/03/20 07:00:42;;;;;;;41.15;32.45;;;;;;;3.49;56.62;102799.00;2838180;84;21011;-71
2022/03/20 07:04:44;;;;;;;41.68;29.23;;;;;;;3.74;55.69;102800.47;2838146;84;21015;-73
2022/03/20 07:08:45;;;;;;;44.27;29.90;;;;;;;3.94;54.90;102805.48;2838285;84;21051;-73
2022/03/20 07:12:47;;;;;;;49.38;28.92;;;;;;;4.17;55.04;102800.34;2838300;84;21535;-72
2022/03/20 07:16:50;;;;;;;44.30;26.73;;;;;;;4.26;52.85;102800.19;2838490;84;21003;-72
2022/03/20 07:20:52;;;;;;;50.28;32.45;;;;;;;4.43;53.64;102799.95;2838681;84;20987;-74
2022/03/20 07:24:53;;;;;;;55.83;31.05;;;;;;;4.53;51.87;102794.09;2838537;84;20964;-73
2022/03/20 07:33:11;;;;;;;40.17;29.82;;;;;;;4.65;51.67;102805.73;2838806;84;20992;-73
2022/03/20 07:37:18;;;;;;;46.75;33.83;;;;;;;4.65;51.32;102800.45;2838798;84;20987;-70
2022/03/20 07:41:19;;;;;;;41.88;31.40;;;;;;;4.68;50.94;102794.27;2834598;84;20999;-73
2022/03/20 07:45:22;;;;;;;49.63;32.50;;;;;;;4.76;51.17;102788.87;2830076;84;21515;-73
2022/03/20 07:49:24;;;;;;;52.60;33.28;;;;;;;4.87;50.89;102786.90;2830252;84;20964;-73
2022/03/20 07:53:26;;;;;;;51.68;32.95;;;;;;;4.92;50.53;102792.98;2830019;84;20996;-73
2022/03/20 07:57:31;;;;;;;53.52;35.50;;;;;;;5.14;50.43;102793.91;2830267;84;21516;-71
2022/03/20 08:01:34;;;;;;;51.75;34.38;;;;;;;5.34;49.36;102793.98;2830472;84;21015;-74
2022/03/20 08:05:35;;;;;;;54.35;33.18;;;;;;;5.56;50.29;102795.72;2845656;80;21003;-74
2022/03/20 08:09:37;;;;;;;48.87;33.90;;;;;;;5.69;49.02;102797.22;2836986;84;21067;-73
2022/03/20 08:13:39;;;;;;;49.13;31.60;;;;;;;5.77;50.00;102797.49;2835769;84;20992;-72
2022/03/20 08:17:45;;;;;;;50.38;34.53;;;;;;;6.00;48.90;102803.61;2835917;83;21047;-73
2022/03/20 08:21:49;;;;;;;58.13;36.53;;;;;;;6.13;48.90;102802.47;2835768;84;20953;-74
2022/03/20 08:25:50;;;;;;;54.00;33.63;;;;;;;6.35;48.83;102797.13;2836003;84;20964;-71
2022/03/20 08:29:52;;;;;;;55.58;36.10;;;;;;;6.32;47.90;102797.20;2836253;84;20988;-74
2022/03/20 08:33:54;;;;;;;55.00;33.35;;;;;;;6.43;48.19;102799.14;2836033;84;21004;-74
2022/03/20 08:37:57;;;;;;;54.50;35.58;;;;;;;6.54;47.43;102794.91;2836021;84;21007;-73
2022/03/20 08:41:59;;;;;;;60.25;37.28;;;;;;;6.49;48.00;102791.52;2848047;83;21035;-73
2022/03/20 08:46:00;;;;;;;56.37;31.93;;;;;;;6.76;48.18;102786.44;2857891;83;21501;-72
2022/03/20 08:50:03;;;;;;;54.65;39.05;;;;;;;6.92;47.49;102787.78;2858494;83;21011;-71
2022/03/20 08:54:04;;;;;;;48.20;35.03;;;;;;;7.04;46.71;102782.61;2858459;83;21599;-73
2022/03/20 08:58:06;;;;;;;55.15;34.30;;;;;;;7.21;47.96;102775.52;2857564;83;21551;-76
2022/03/20 09:02:08;;;;;;;53.17;36.68;;;;;;;7.36;46.71;102776.86;2858929;83;28196;-70
2022/03/20 09:06:10;;;;;;;49.25;37.05;;;;;;;7.39;47.20;102771.95;2860604;83;20992;-70
2022/03/20 09:10:14;;;;;;;48.33;35.78;;;;;;;7.55;47.05;102768.39;2861188;83;21498;-71
2022/03/20 09:14:16;;;;;;;57.98;40.98;;;;;;;7.64;46.37;102764.16;2861161;83;21016;-69
2022/03/20 09:22:34;;;;;;;61.70;40.90;;;;;;;7.70;46.78;102761.31;2861207;83;21042;-70
2022/03/20 09:26:36;;;;;;;48.87;35.80;;;;;;;7.92;46.49;102769.09;2861312;83;21012;-70
2022/03/20 09:30:39;;;;;;;55.58;33.67;;;;;;;8.10;45.87;102764.98;2861333;83;21076;-70
2022/03/20 09:34:40;;;;;;;50.80;33.73;;;;;;;8.19;47.13;102762.48;2861164;83;21046;-70
2022/03/20 09:38:42;;;;;;;49.05;34.33;;;;;;;8.49;45.46;102759.77;2861422;83;21051;-70
2022/03/20 09:42:44;;;;;;;56.20;38.65;;;;;;;8.62;45.43;102749.63;2846419;83;21044;-70
2022/03/20 09:46:46;;;;;;;48.65;33.53;;;;;;;8.73;45.52;102750.11;2840322;84;21063;-69
2022/03/20 09:50:49;;;;;;;45.25;34.33;;;;;;;8.82;45.01;102755.56;2840410;84;21024;-69
2022/03/20 09:54:51;;;;;;;53.58;37.33;;;;;;;8.90;44.35;102744.23;2839856;84;21020;-69
2022/03/20 09:58:53;;;;;;;46.35;33.23;;;;;;;9.09;45.50;102745.75;2840413;84;21003;-70
2022/03/20 10:02:54;;;;;;;45.63;32.15;;;;;;;9.25;44.15;102741.22;2840514;84;21004;-70
2022/03/20 10:06:56;;;;;;;46.28;34.08;;;;;;;9.38;44.53;102741.62;2840586;84;21028;-69
2022/03/20 10:11:14;;;;;;;43.73;30.82;;;;;;;9.40;43.24;102744.63;2840442;84;21048;-70
2022/03/20 10:15:32;;;;;;;42.78;28.45;;;;;;;9.50;43.64;102733.20;2839373;83;21016;-69
2022/03/20 10:19:34;;;;;;;48.52;31.97;;;;;;;9.61;42.70;102732.78;2839522;83;21028;-70
2022/03/20 10:23:41;;;;;;;50.98;29.85;;;;;;;9.82;43.40;102736.38;2840650;84;21012;-69
2022/03/20 10:28:01;;;;;;;42.20;28.70;;;;;;;10.04;43.25;102732.88;2840863;84;20980;-69
2022/03/20 10:32:02;;;;;;;;;;;;;;;10.10;42.15;102722.44;2842208;82;21036;-69
2022/03/20 10:36:17;;;;;;;42.23;28.30;;;;;;;10.30;42.78;102728.28;2840203;83;20096;-69
2022/03/20 10:40:27;;;;;;;35.95;27.30;;;;;;;10.38;41.17;102723.97;2849407;82;21014;-69
2022/03/20 10:44:31;;;;;;;37.15;27.75;;;;;;;10.43;40.29;102724.66;2897040;82;21058;-74
2022/03/20 10:48:46;;;;;;;40.48;30.88;;;;;;;10.54;40.80;102723.75;2894461;81;21023;-72
2022/03/20 10:52:53;;;;;;;44.27;30.82;;;;;;;10.55;41.94;102715.29;2894695;82;21543;-72
2022/03/20 10:57:01;;;;;;;43.10;28.98;;;;;;;10.57;41.23;102714.75;2890880;82;20991;-70
2022/03/20 11:01:03;;;;;;;37.53;25.27;;;;;;;10.75;41.97;102720.22;2895718;82;21031;-70
2022/03/20 11:05:06;;;;;;;40.17;28.98;;;;;;;10.82;40.49;102711.05;2895637;82;20992;-71
2022/03/20 11:09:07;;;;;;;43.20;28.80;;;;;;;10.79;40.75;102707.16;2898202;82;21046;-71
2022/03/20 11:13:09;;;;;;;36.93;30.27;;;;;;;10.76;40.97;102716.17;2897585;82;21062;-70
2022/03/20 11:17:17;;;;;;;32.35;25.40;;;;;;;10.80;40.85;102696.91;2896845;82;21014;-71
2022/03/20 11:21:22;;;;;;;37.95;27.00;;;;;;;10.93;40.19;102702.58;2899972;82;21622;-71
2022/03/20 11:25:25;;;;;;;;;;;;;;;10.94;40.04;102699.83;2900405;81;20936;-71
2022/03/20 11:29:31;;;;;;;36.83;25.35;;;;;;;10.98;39.41;102692.58;2898656;82;20127;-74
2022/03/20 11:33:33;;;;;;;37.35;25.70;;;;;;;11.13;39.60;102687.01;2898404;82;21014;-72
2022/03/20 11:37:48;;;;;;;31.35;22.02;;;;;;;11.22;38.71;102686.60;2897654;82;21575;-73
2022/03/20 11:42:17;;;;;;;32.48;22.52;;;;;;;11.37;38.19;102674.80;2892190;82;21039;-73
2022/03/20 11:46:27;;;;;;;25.65;18.90;;;;;;;11.49;38.47;102667.58;2882323;82;21000;-72
2022/03/20 11:50:28;;;;;;;22.82;17.25;;;;;;;11.66;37.22;102667.23;2881690;82;21000;-74
2022/03/20 11:54:32;;;;;;;26.20;16.42;;;;;;;11.63;35.56;102670.91;2856778;82;21047;-74
2022/03/20 11:58:36;;;;;;;18.92;15.35;;;;;;;11.63;34.99;102648.73;2881878;82;21007;-72
2022/03/20 12:02:55;;;;;;;21.48;16.87;;;;;;;11.66;34.81;102652.57;2882160;82;21007;-74
2022/03/20 12:07:14;;;;;;;25.62;18.98;;;;;;;11.74;35.95;102638.87;2858101;82;21016;-74
2022/03/20 12:11:35;;;;;;;26.95;18.77;;;;;;;11.81;35.78;102634.95;2882162;82;21623;-75
2022/03/20 12:15:45;;;;;;;28.38;18.95;;;;;;;11.89;34.82;102629.23;2882382;82;21556;-73
2022/03/20 12:19:49;;;;;;;27.35;20.80;;;;;;;11.89;36.11;102618.56;2882111;82;21075;-73
2022/03/20 12:23:51;;;;;;;33.67;22.20;;;;;;;12.04;36.83;102618.28;2882283;82;21059;-72
2022/03/20 12:27:53;;;;;;;32.90;23.50;;;;;;;12.05;35.25;102616.02;2882317;82;21023;-74
2022/03/20 12:32:02;;;;;;;51.95;28.23;;;;;;;12.07;35.43;102611.45;2883154;82;21008;-74
2022/03/20 12:36:05;;;;;;;29.65;22.05;;;;;;;12.09;36.02;102609.60;2882994;82;20980;-75
2022/03/20 12:40:12;;;;;;;33.92;26.35;;;;;;;12.20;36.48;102607.71;2856119;82;21070;-73
2022/03/20 12:44:14;;;;;;;32.25;25.17;;;;;;;12.24;35.97;102604.78;2881815;82;21551;-74
2022/03/20 12:48:21;;;;;;;33.90;22.32;;;;;;;12.36;36.73;102605.94;2882622;82;20980;-74
2022/03/20 12:52:24;;;;;;;30.05;20.08;;;;;;;12.38;36.74;102593.41;2882790;82;21042;-74
2022/03/20 12:56:29;;;;;;;26.20;20.75;;;;;;;12.30;36.65;102588.08;2883177;82;21051;-73
2022/03/20 13:00:35;;;;;;;24.70;19.17;;;;;;;12.42;35.41;102581.62;2883244;82;21499;-72
2022/03/20 13:04:38;;;;;;;24.50;18.67;;;;;;;12.42;35.95;102576.28;2883652;82;21560;-71
2022/03/20 13:08:46;;;;;;;28.98;20.17;;;;;;;12.39;35.13;102571.11;2883925;82;20975;-73
2022/03/20 13:13:02;;;;;;;24.45;18.15;;;;;;;12.46;34.33;102566.28;2883939;82;21003;-74
2022/03/20 13:17:02;;;;;;;22.80;18.40;;;;;;;12.54;34.56;102568.54;2881554;82;21012;-75
2022/03/20 13:21:05;;;;;;;29.07;18.45;;;;;;;12.66;35.33;102565.22;2883409;82;21555;-73
2022/03/20 13:25:18;;;;;;;61.10;33.67;;;;;;;12.67;34.06;102553.59;2883565;82;21034;-74
2022/03/20 13:29:23;;;;;;;196.82;109.42;;;;;;;12.61;35.05;102544.59;2883593;82;21011;-75
2022/03/20 13:33:34;;;;;;;165.88;87.55;;;;;;;12.74;35.29;102542.56;2884128;82;21054;-75
2022/03/20 13:37:37;;;;;;;21.55;12.93;;;;;;;12.81;34.18;102528.78;2883594;82;21055;-73
2022/03/20 13:41:41;;;;;;;15.08;11.28;;;;;;;12.94;31.73;102531.63;2886884;82;21594;-76
2022/03/20 13:45:43;;;;;;;26.10;15.32;;;;;;;12.95;31.73;102521.82;2907215;82;21030;-73
2022/03/20 13:49:45;;;;;;;16.90;13.78;;;;;;;12.91;32.39;102525.13;2906903;81;20983;-72
2022/03/20 13:54:16;;;;;;;15.10;12.80;;;;;;;12.99;31.63;102524.23;2907434;81;20951;-73
2022/03/20 13:58:18;;;;;;;18.50;12.55;;;;;;;13.00;32.97;102520.62;2907142;82;20994;-74
2022/03/20 14:02:21;;;;;;;13.93;11.28;;;;;;;13.08;33.61;102514.84;2907378;81;21074;-72
2022/03/20 14:06:25;;;;;;;15.65;11.93;;;;;;;12.95;32.45;102510.64;2908197;82;21011;-71
2022/03/20 14:10:26;;;;;;;19.37;13.18;;;;;;;13.03;32.97;102500.86;2908722;82;21397;-70
2022/03/20 14:14:44;;;;;;;17.67;11.80;;;;;;;12.87;32.92;102507.55;2908829;81;21027;-72
2022/03/20 14:18:54;;;;;;;14.43;11.68;;;;;;;12.86;32.26;102504.01;2909037;81;21018;-70
2022/03/20 14:22:58;;;;;;;16.37;13.32;;;;;;;12.96;32.38;102495.49;2908776;81;21488;-71
2022/03/20 14:27:00;;;;;;;16.05;13.58;;;;;;;12.79;33.15;102501.31;2908977;81;21061;-71
2022/03/20 14:39:54;;;;;;;14.43;11.25;;;;;;;12.90;32.10;102495.36;2908681;82;20998;-69
2022/03/20 14:44:17;;;;;;;14.13;10.23;;;;;;;12.88;32.42;102485.23;2879440;82;21062;-70
2022/03/20 14:48:19;;;;;;;15.00;10.33;;;;;;;12.82;32.23;102492.27;2857665;83;21023;-72
2022/03/20 14:52:21;;;;;;;19.10;14.00;;;;;;;12.70;32.31;102480.47;2856060;83;20998;-74
2022/03/20 14:56:22;;;;;;;18.50;12.58;;;;;;;12.70;32.31;102488.48;2855807;83;20999;-72
2022/03/20 15:00:24;;;;;;;19.60;14.87;;;;;;;12.61;32.09;102487.19;2855631;83;21026;-74
2022/03/20 15:04:27;;;;;;;14.03;12.58;;;;;;;12.64;33.12;102480.34;2855787;83;21015;-75
2022/03/20 15:12:45;;;;;;;15.40;11.50;;;;;;;12.49;32.54;102463.38;2855537;83;21531;-75
2022/03/20 15:16:46;;;;;;;15.35;12.20;;;;;;;12.52;33.37;102463.66;2855817;83;21003;-74
2022/03/20 15:20:48;;;;;;;15.98;11.80;;;;;;;12.50;33.83;102470.89;2855776;83;21011;-75
2022/03/20 15:24:51;;;;;;;14.50;11.83;;;;;;;12.46;32.97;102468.01;2855502;83;21021;-76
2022/03/20 15:28:55;;;;;;;13.90;12.47;;;;;;;12.41;32.81;102473.13;2856132;82;21050;-75
2022/03/20 15:32:57;;;;;;;16.62;11.73;;;;;;;12.40;33.48;102474.08;2857421;82;21058;-72
2022/03/20 15:36:58;;;;;;;14.28;11.43;;;;;;;12.35;33.96;102469.44;2858253;83;21021;-72
2022/03/20 15:41:00;;;;;;;15.95;11.50;;;;;;;12.27;33.78;102463.67;2857803;83;20971;-72
2022/03/20 15:45:05;;;;;;;16.00;11.53;;;;;;;12.23;33.66;102467.46;2893632;82;21035;-72
2022/03/20 15:49:06;;;;;;;17.37;11.60;;;;;;;12.10;33.98;102460.11;2899775;82;21067;-71
2022/03/20 15:53:08;;;;;;;12.75;11.12;;;;;;;11.98;33.97;102462.93;2900722;82;21409;-73
2022/03/20 15:57:10;;;;;;;16.97;12.65;;;;;;;11.95;34.35;102463.55;2900510;82;20975;-72
2022/03/20 16:01:13;;;;;;;12.47;10.93;;;;;;;11.87;34.84;102463.95;2900582;82;21076;-71
2022/03/20 16:05:14;;;;;;;16.95;13.28;;;;;;;11.77;34.83;102466.73;2900287;82;20952;-71
2022/03/20 16:09:16;;;;;;;19.62;14.00;;;;;;;11.71;35.60;102464.78;2900680;82;20979;-70
2022/03/20 16:13:18;;;;;;;15.60;11.88;;;;;;;11.55;34.57;102459.36;2900202;82;21050;-73
2022/03/20 16:17:19;;;;;;;22.42;13.62;;;;;;;11.50;35.38;102457.41;2900210;82;21034;-73
2022/03/20 16:21:24;;;;;;;19.12;13.50;;;;;;;11.38;35.70;102463.36;2890080;80;21015;-69
2022/03/20 16:29:39;;;;;;;20.45;12.75;;;;;;;11.07;36.15;102456.42;2851041;83;21039;-73
2022/03/20 16:33:45;;;;;;;16.35;12.03;;;;;;;10.96;36.08;102458.29;2852985;82;20994;-71
2022/03/20 16:37:47;;;;;;;15.18;13.18;;;;;;;10.83;36.14;102454.52;2855701;83;21038;-70
2022/03/20 16:41:50;;;;;;;21.85;17.07;;;;;;;10.68;36.75;102454.31;2855413;83;21102;-71
2022/03/20 16:45:53;;;;;;;19.27;15.23;;;;;;;10.56;36.90;102464.19;2856242;83;21015;-71
2022/03/20 16:49:55;;;;;;;19.07;14.18;;;;;;;10.45;37.29;102453.20;2855696;83;21078;-72
2022/03/20 16:53:57;;;;;;;28.27;15.13;;;;;;;10.30;38.05;102460.92;2855490;83;21062;-71
2022/03/20 16:57:58;;;;;;;25.35;16.40;;;;;;;10.08;38.49;102458.37;2855624;83;21046;-72
2022/03/20 17:02:00;;;;;;;24.12;17.95;;;;;;;9.84;39.26;102447.91;2912190;81;21000;-74
2022/03/20 17:06:01;;;;;;;28.47;18.30;;;;;;;9.60;39.90;102453.37;2929931;81;21012;-73
2022/03/20 17:10:09;;;;;;;35.92;19.90;;;;;;;9.45;39.81;102452.23;2929821;81;20992;-69
2022/03/20 17:14:09;;;;;;;22.13;16.30;;;;;;;9.29;40.25;102454.66;2929133;81;21015;-73
2022/03/20 17:18:11;;;;;;;21.30;15.25;;;;;;;9.18;40.94;102455.59;2929339;81;20976;-72
2022/03/20 17:22:13;;;;;;;25.90;18.62;;;;;;;9.05;41.42;102453.91;2929230;81;21032;-72
2022/03/20 17:26:14;;;;;;;32.30;18.37;;;;;;;8.96;41.72;102462.62;2929030;80;21556;-74
2022/03/20 17:30:16;;;;;;;23.92;15.08;;;;;;;8.81;42.61;102456.59;2929136;81;21505;-75
2022/03/20 17:34:18;;;;;;;23.22;14.90;;;;;;;8.63;42.86;102463.02;2863931;83;21485;-73
2022/03/20 17:38:19;;;;;;;21.25;15.10;;;;;;;8.41;43.86;102465.14;2842445;83;21075;-70
2022/03/20 17:42:21;;;;;;;26.05;18.27;;;;;;;8.23;43.75;102464.50;2842715;83;21120;-73
2022/03/20 17:46:22;;;;;;;25.20;17.52;;;;;;;8.07;43.85;102465.09;2850841;83;20983;-74
2022/03/20 17:50:25;;;;;;;28.73;18.55;;;;;;;7.93;44.05;102461.59;2851026;83;21019;-75
2022/03/20 17:54:27;;;;;;;27.20;19.17;;;;;;;7.77;44.56;102467.91;2848817;83;21015;-76
2022/03/20 17:58:28;;;;;;;25.68;22.98;;;;;;;7.60;44.69;102464.53;2848624;83;20991;-73
2022/03/20 18:07:51;;;;;;;74.47;46.75;;;;;;;7.18;45.82;102465.05;2848950;83;21031;-72
2022/03/20 18:10:58;;;;;;;73.15;42.70;;;;;;;7.09;46.12;102471.52;2823755;83;21063;-75
2022/03/20 18:15:00;;;;;;;72.62;41.53;;;;;;;6.90;46.36;102470.77;2842753;83;21023;-72
2022/03/20 18:19:04;;;;;;;56.90;36.65;;;;;;;6.76;46.69;102479.58;2821418;84;21014;-74
2022/03/20 18:23:08;;;;;;;51.92;33.18;;;;;;;6.73;45.90;102484.97;2821609;84;21038;-75
2022/03/20 18:27:09;;;;;;;68.55;46.23;;;;;;;6.67;46.12;102485.55;2821786;84;21070;-74
2022/03/20 18:31:12;;;;;;;66.22;42.38;;;;;;;6.66;45.81;102481.64;2822523;84;21030;-73
2022/03/20 18:35:16;;;;;;;76.87;41.90;;;;;;;6.60;46.16;102489.77;2822316;84;21010;-75
2022/03/20 18:39:21;;;;;;;43.95;28.10;;;;;;;6.48;46.02;102479.95;2822066;84;21018;-73
2022/03/20 18:43:22;;;;;;;41.83;27.20;;;;;;;6.38;47.76;102488.61;2820977;83;21055;-73
2022/03/20 18:47:24;;;;;;;62.35;35.40;;;;;;;6.24;48.11;102492.09;2820305;84;21083;-74
2022/03/20 18:51:26;;;;;;;51.00;35.20;;;;;;;6.02;48.28;102491.37;2818761;84;21026;-76
2022/03/20 18:55:28;;;;;;;44.33;29.72;;;;;;;5.82;49.07;102496.70;2818602;84;21050;-75
2022/03/20 18:59:32;;;;;;;54.55;32.15;;;;;;;5.73;49.40;102489.03;2799234;84;21020;-73
2022/03/20 19:03:35;;;;;;;55.90;32.25;;;;;;;5.59;50.05;102489.36;2798958;84;21022;-73
2022/03/20 19:07:40;;;;;;;50.40;30.43;;;;;;;5.49;49.98;102488.73;2797954;85;21055;-74
2022/03/20 19:11:42;;;;;;;50.25;33.35;;;;;;;5.46;50.48;102494.09;2782495;85;20983;-74
2022/03/20 19:15:43;;;;;;;55.20;33.73;;;;;;;5.41;50.19;102490.70;2887190;82;21046;-75
2022/03/20 19:19:45;;;;;;;51.05;33.58;;;;;;;5.38;50.12;102492.11;2887598;82;21007;-75
2022/03/20 19:23:48;;;;;;;49.48;32.08;;;;;;;5.32;50.25;102494.91;2887336;82;21011;-75
2022/03/20 19:27:50;;;;;;;54.30;35.17;;;;;;;5.21;51.05;102499.09;2887134;82;21527;-76
2022/03/20 19:31:52;;;;;;;64.40;44.42;;;;;;;5.09;51.42;102493.66;2887411;82;20956;-76
2022/03/20 19:40:10;;;;;;;689.27;440.82;;;;;;;4.88;52.00;102505.11;2887282;82;20995;-73